Time;durP1;ratioP1;P1;durP2;ratioP2;P2;SDS_P1;SDS_P2;PMS_P1;PMS_P2;Temp;Humidity;BMP_temperature;BMP_pressure;BME280_temperature;BME280_humidity;BME280_pressure;Samples;Min_cycle;Max_cycle;Signal;HPM_P1;HPM_P2
2022/09/06 00:01:42;;;;;;;5.37;2.78;;;;;;;19.89;67.60;100302.84;4308912;33;35677;-74
2022/09/06 00:04:28;;;;;;;6.28;2.95;;;;;;;19.88;68.23;100298.47;4296590;33;34907;-75
2022/09/06 00:07:15;;;;;;;5.18;3.10;;;;;;;19.70;68.72;100298.81;4307529;33;34915;-74
2022/09/06 00:10:01;;;;;;;4.68;3.17;;;;;;;20.18;64.76;100302.44;4298680;33;35218;-74
2022/09/06 00:12:47;;;;;;;5.68;2.95;;;;;;;20.32;65.12;100304.75;4294901;33;33591;-74
2022/09/06 00:15:34;;;;;;;5.93;3.03;;;;;;;20.14;66.62;100297.94;4296262;33;35037;-74
2022/09/06 00:18:21;;;;;;;5.90;3.08;;;;;;;19.82;67.46;100303.50;4296607;33;35523;-74
2022/09/06 00:21:28;;;;;;;5.45;2.97;;;;;;;19.96;67.31;100300.28;4306317;33;34738;-75
2022/09/06 00:24:15;;;;;;;5.50;3.10;;;;;;;19.52;68.03;100298.31;4297335;33;34751;-75
2022/09/06 00:27:05;;;;;;;4.18;2.67;;;;;;;19.67;67.22;100298.72;4306773;33;35985;-74
2022/09/06 00:29:51;;;;;;;4.30;2.97;;;;;;;20.35;63.33;100303.19;4298974;33;34565;-74
2022/09/06 00:32:38;;;;;;;4.82;3.28;;;;;;;20.42;64.73;100314.53;4300061;33;34134;-74
2022/09/06 00:35:25;;;;;;;4.18;3.20;;;;;;;20.01;67.99;100311.13;4307791;33;34351;-74
2022/09/06 00:38:12;;;;;;;6.40;3.10;;;;;;;19.69;70.02;100311.09;4296096;33;35017;-74
2022/09/06 00:40:58;;;;;;;4.40;2.92;;;;;;;19.64;70.11;100313.31;4295185;33;35579;-74
2022/09/06 00:43:45;;;;;;;5.90;2.97;;;;;;;19.18;71.39;100302.50;4296337;33;34215;-74
2022/09/06 00:46:31;;;;;;;5.55;2.90;;;;;;;19.39;69.97;100307.06;4296613;33;34714;-74
2022/09/06 00:49:25;;;;;;;5.70;2.95;;;;;;;19.37;70.14;100303.81;4294282;33;33760;-74
2022/09/06 00:52:14;;;;;;;3.75;2.60;;;;;;;19.64;68.01;100297.44;4290415;33;34588;-75
2022/09/06 00:55:00;;;;;;;4.15;2.65;;;;;;;19.57;68.22;100308.34;4295739;33;33556;-74
2022/09/06 00:57:50;;;;;;;3.80;2.80;;;;;;;19.48;68.74;100310.47;4306295;33;35065;-74
2022/09/06 01:00:36;;;;;;;6.85;3.35;;;;;;;19.56;68.29;100312.31;4298084;33;34962;-75
2022/09/06 01:03:23;;;;;;;4.22;2.40;;;;;;;19.93;66.53;100299.00;4300720;33;36245;-74
2022/09/06 01:06:16;;;;;;;6.10;2.58;;;;;;;19.84;66.60;100301.16;4294031;33;34892;-74
2022/09/06 01:09:28;;;;;;;5.78;2.72;;;;;;;19.37;68.87;100304.63;4307148;33;35165;-74
2022/09/06 01:12:57;;;;;;;4.57;2.60;;;;;;;19.27;70.04;100305.94;4303837;33;34979;-75
2022/09/06 01:15:55;;;;;;;3.42;2.62;;;;;;;19.68;67.83;100298.34;4307498;33;35196;-75
2022/09/06 01:19:04;;;;;;;4.10;2.92;;;;;;;19.77;66.46;100298.19;4307654;33;34225;-74
2022/09/06 01:22:25;;;;;;;5.32;2.78;;;;;;;19.70;65.97;100307.16;4308237;33;35653;-74
2022/09/06 01:25:39;;;;;;;3.95;2.75;;;;;;;19.24;68.32;100306.66;4286621;33;34810;-75
2022/09/06 01:28:34;;;;;;;6.45;2.90;;;;;;;19.24;68.61;100300.25;4308335;33;34522;-74
2022/09/06 01:31:24;;;;;;;4.95;2.60;;;;;;;19.50;67.39;100294.28;4309604;33;35139;-75
2022/09/06 01:34:28;;;;;;;3.87;2.33;;;;;;;19.75;66.07;100292.16;4305187;33;34731;-74
2022/09/06 01:37:18;;;;;;;4.20;2.60;;;;;;;19.79;65.83;100286.72;4299202;33;35036;-74
2022/09/06 01:40:05;;;;;;;4.37;2.67;;;;;;;19.63;66.48;100295.00;4294931;33;34694;-75
2022/09/06 01:42:52;;;;;;;4.45;2.62;;;;;;;18.74;70.97;100293.25;4310413;33;34139;-74
2022/09/06 01:45:47;;;;;;;3.08;2.37;;;;;;;18.55;73.04;100291.84;4284008;33;35500;-74
2022/09/06 01:48:40;;;;;;;5.10;2.72;;;;;;;19.25;69.66;100297.16;4305915;33;34999;-74
2022/09/06 01:51:26;;;;;;;3.80;2.47;;;;;;;19.29;68.64;100294.47;4304634;33;35464;-74
2022/09/06 01:54:43;;;;;;;5.32;3.10;;;;;;;19.17;69.37;100300.06;4306522;33;33746;-74
2022/09/06 01:57:54;;;;;;;5.40;3.08;;;;;;;18.32;74.29;100288.75;4311649;33;35701;-74
2022/09/06 02:00:54;;;;;;;4.32;3.28;;;;;;;18.38;74.66;100290.12;4285062;33;35020;-74
2022/09/06 02:03:51;;;;;;;6.35;4.03;;;;;;;18.63;74.20;100276.25;4298253;33;34825;-74
2022/09/06 02:06:52;;;;;;;4.70;2.92;;;;;;;19.15;71.59;100292.09;4293715;33;34372;-74
2022/09/06 02:09:42;;;;;;;5.10;3.42;;;;;;;18.95;72.17;100293.09;4292684;33;35575;-75
2022/09/06 02:12:30;;;;;;;5.03;3.45;;;;;;;18.32;75.65;100290.72;4285781;33;35554;-75
2022/09/06 02:15:23;;;;;;;5.25;3.15;;;;;;;17.75;80.03;100286.81;4297615;33;34647;-75
2022/09/06 02:18:24;;;;;;;5.75;3.55;;;;;;;18.43;76.87;100278.81;4297905;33;34272;-75
2022/09/06 02:21:13;;;;;;;5.45;3.70;;;;;;;17.70;81.33;100281.50;4290232;33;35693;-74
2022/09/06 02:24:01;;;;;;;6.97;3.50;;;;;;;18.18;78.94;100282.75;4287423;33;35904;-75
2022/09/06 02:26:48;;;;;;;6.97;3.85;;;;;;;18.37;77.71;100282.16;4296711;33;34508;-74
2022/09/06 02:29:34;;;;;;;6.32;3.85;;;;;;;18.40;77.30;100281.47;4293498;33;35067;-74
2022/09/06 02:32:25;;;;;;;5.60;3.30;;;;;;;18.52;76.56;100275.09;4300479;33;34378;-75
2022/09/06 02:35:13;;;;;;;5.70;3.12;;;;;;;18.97;73.64;100274.91;4300104;33;34942;-74
2022/09/06 02:38:01;;;;;;;4.85;3.40;;;;;;;18.82;73.58;100279.25;4297070;33;34705;-74
2022/09/06 02:40:47;;;;;;;7.72;3.62;;;;;;;18.74;74.67;100269.06;4300933;33;34173;-74
2022/09/06 02:43:34;;;;;;;7.57;3.55;;;;;;;18.71;74.29;100278.06;4294932;33;35517;-74
2022/09/06 02:46:22;;;;;;;7.25;3.58;;;;;;;18.66;74.50;100270.00;4311114;33;35992;-75
2022/09/06 02:49:08;;;;;;;5.20;3.40;;;;;;;18.28;76.44;100275.94;4311164;33;35637;-75
2022/09/06 02:51:55;;;;;;;5.37;3.58;;;;;;;17.76;79.89;100280.97;4301446;33;35166;-75
2022/09/06 02:54:42;;;;;;;4.60;3.28;;;;;;;17.86;79.91;100281.69;4303646;33;34607;-75
2022/09/06 02:57:28;;;;;;;5.30;3.28;;;;;;;18.53;76.35;100282.28;4306869;33;36068;-75
2022/09/06 03:00:15;;;;;;;5.28;3.35;;;;;;;17.83;79.46;100265.75;4309377;33;34845;-74
2022/09/06 03:03:02;;;;;;;5.22;3.65;;;;;;;18.45;76.42;100270.16;4311630;33;35300;-75
2022/09/06 03:05:50;;;;;;;5.43;3.47;;;;;;;18.56;75.10;100270.47;4299368;33;35639;-75
2022/09/06 03:08:37;;;;;;;5.65;3.17;;;;;;;18.54;74.54;100268.03;4298654;33;34923;-74
2022/09/06 03:11:23;;;;;;;6.18;3.53;;;;;;;18.26;75.98;100262.41;4302876;33;34608;-74
2022/09/06 03:14:10;;;;;;;5.65;3.60;;;;;;;17.37;81.99;100264.94;4310196;33;35035;-75
2022/09/06 03:16:56;;;;;;;10.55;3.90;;;;;;;16.29;91.15;100263.63;4309213;33;34616;-74
2022/09/06 03:19:43;;;;;;;7.80;3.85;;;;;;;17.14;87.36;100264.50;4307591;33;35059;-74
2022/09/06 03:22:29;;;;;;;7.25;4.00;;;;;;;17.09;86.76;100259.97;4306377;33;34147;-74
2022/09/06 03:25:16;;;;;;;8.60;4.10;;;;;;;17.23;86.65;100265.22;4308169;33;35153;-74
2022/09/06 03:28:02;;;;;;;5.05;3.62;;;;;;;17.32;84.63;100265.94;4313065;33;34665;-74
2022/09/06 03:30:50;;;;;;;5.07;3.55;;;;;;;17.90;81.46;100264.03;4304255;33;35069;-74
2022/09/06 03:33:36;;;;;;;5.85;3.42;;;;;;;16.61;88.31;100273.16;4299568;33;34241;-75
2022/09/06 03:36:23;;;;;;;7.25;4.00;;;;;;;17.35;85.28;100265.25;4307312;33;34212;-74
2022/09/06 03:39:09;;;;;;;6.22;4.00;;;;;;;17.31;84.73;100269.88;4308392;33;34670;-74
2022/09/06 03:41:55;;;;;;;5.85;3.80;;;;;;;17.20;84.87;100265.91;4307473;33;35709;-74
2022/09/06 03:44:42;;;;;;;6.93;3.87;;;;;;;17.63;82.81;100272.97;4295678;33;34752;-74
2022/09/06 03:47:28;;;;;;;7.18;4.00;;;;;;;17.32;83.65;100274.25;4296732;33;34770;-74
2022/09/06 03:50:14;;;;;;;8.60;4.05;;;;;;;17.14;84.72;100276.38;4309357;33;34626;-74
2022/09/06 03:53:01;;;;;;;5.93;3.62;;;;;;;17.53;82.73;100274.19;4311473;33;35020;-74
2022/09/06 03:55:49;;;;;;;6.87;3.65;;;;;;;17.85;80.13;100280.09;4307007;33;33552;-74
2022/09/06 03:58:35;;;;;;;6.37;3.62;;;;;;;18.00;79.27;100270.28;4296675;33;33168;-74
2022/09/06 04:01:21;;;;;;;6.12;3.70;;;;;;;17.98;78.87;100271.41;4297873;33;35564;-74
2022/09/06 04:04:07;;;;;;;5.68;3.42;;;;;;;18.10;78.29;100276.19;4309604;33;36043;-74
2022/09/06 04:06:54;;;;;;;6.22;3.50;;;;;;;17.89;79.18;100275.44;4306692;33;35464;-74
2022/09/06 04:09:40;;;;;;;8.25;3.80;;;;;;;17.74;79.82;100274.13;4307536;33;34181;-74
2022/09/06 04:12:27;;;;;;;8.10;4.05;;;;;;;17.11;83.42;100270.72;4302452;33;34735;-75
2022/09/06 04:15:14;;;;;;;6.90;3.80;;;;;;;17.40;82.39;100276.12;4295349;33;34667;-74
2022/09/06 04:18:00;;;;;;;7.00;3.80;;;;;;;17.82;78.86;100276.03;4308806;33;34631;-74
2022/09/06 04:20:54;;;;;;;6.30;3.33;;;;;;;18.02;77.11;100267.97;4298499;33;36289;-74
2022/09/06 04:23:40;;;;;;;6.57;4.15;;;;;;;17.92;77.73;100272.78;4291785;33;35600;-74
2022/09/06 04:26:27;;;;;;;8.00;3.58;;;;;;;17.84;78.29;100282.03;4296742;33;35066;-74
2022/09/06 04:29:13;;;;;;;7.07;3.80;;;;;;;17.79;77.11;100279.50;4303288;33;35403;-74
2022/09/06 04:31:59;;;;;;;7.28;3.50;;;;;;;17.68;76.62;100276.31;4305661;33;34262;-74
2022/09/06 04:34:46;;;;;;;6.18;3.50;;;;;;;17.54;77.00;100287.72;4305443;33;34402;-74
2022/09/06 04:37:32;;;;;;;7.45;3.85;;;;;;;17.42;77.92;100282.16;4292040;33;33363;-74
2022/09/06 04:40:18;;;;;;;7.30;4.03;;;;;;;17.47;78.17;100270.00;4295737;33;35571;-75
2022/09/06 04:43:05;;;;;;;7.78;3.50;;;;;;;17.72;77.55;100287.50;4302683;33;34269;-75
2022/09/06 04:45:51;;;;;;;5.78;3.42;;;;;;;17.82;77.05;100281.56;4305789;33;34646;-74
2022/09/06 04:48:38;;;;;;;5.00;3.70;;;;;;;18.10;74.48;100278.13;4280699;33;35032;-75
2022/09/06 04:51:25;;;;;;;6.93;3.72;;;;;;;17.80;75.52;100275.56;4307144;33;34544;-75
2022/09/06 04:54:11;;;;;;;6.65;3.42;;;;;;;17.92;75.78;100280.31;4306151;33;34382;-75
2022/09/06 04:56:58;;;;;;;6.97;3.90;;;;;;;17.84;76.77;100276.47;4307070;33;34581;-74
2022/09/06 04:59:45;;;;;;;7.30;3.53;;;;;;;17.43;79.31;100271.88;4302935;33;34886;-75
2022/09/06 05:02:32;;;;;;;7.95;3.40;;;;;;;18.11;75.86;100266.69;4278644;33;34982;-74
2022/09/06 05:05:19;;;;;;;5.95;3.58;;;;;;;18.16;75.71;100273.97;4305229;33;34190;-74
2022/09/06 05:08:05;;;;;;;6.47;3.42;;;;;;;18.20;76.02;100263.81;4304465;33;34611;-75
2022/09/06 05:10:52;;;;;;;6.72;3.60;;;;;;;18.08;75.17;100272.13;4306223;33;35702;-74
2022/09/06 05:13:38;;;;;;;9.13;3.60;;;;;;;18.28;72.97;100275.94;4306964;33;34614;-74
2022/09/06 05:16:24;;;;;;;6.32;3.17;;;;;;;18.33;71.46;100272.94;4305336;33;34192;-74
2022/09/06 05:19:11;;;;;;;6.47;2.97;;;;;;;18.32;71.78;100276.84;4296526;33;34750;-74
2022/09/06 05:21:58;;;;;;;4.60;3.00;;;;;;;18.42;71.21;100277.19;4292602;33;36040;-74
2022/09/06 05:24:45;;;;;;;7.25;3.42;;;;;;;18.32;71.50;100277.66;4287513;33;34293;-74
2022/09/06 05:27:31;;;;;;;5.18;3.12;;;;;;;18.40;71.36;100275.94;4275417;33;33581;-80
2022/09/06 05:30:18;;;;;;;6.30;3.17;;;;;;;18.63;69.04;100279.81;4295424;33;35441;-79
2022/09/06 05:33:04;;;;;;;6.60;3.20;;;;;;;18.21;69.28;100270.97;4310374;33;35102;-78
2022/09/06 05:35:51;;;;;;;6.53;3.50;;;;;;;18.52;67.39;100269.56;4309329;33;34824;-78
2022/09/06 05:38:37;;;;;;;8.88;3.20;;;;;;;18.82;65.81;100278.44;4308117;33;34155;-79
2022/09/06 05:41:24;;;;;;;9.30;3.22;;;;;;;18.90;65.73;100273.88;4298548;33;35639;-76
2022/09/06 05:44:10;;;;;;;6.03;3.70;;;;;;;19.04;64.53;100280.69;4295121;33;35031;-79
2022/09/06 05:46:57;;;;;;;5.85;3.17;;;;;;;19.24;64.00;100278.03;4307241;33;34890;-79
2022/09/06 05:49:43;;;;;;;6.30;3.72;;;;;;;19.11;64.68;100285.63;4300099;33;34302;-78
2022/09/06 05:52:29;;;;;;;6.40;3.75;;;;;;;19.38;61.90;100280.41;4309269;33;34643;-79
2022/09/06 05:55:16;;;;;;;7.97;3.30;;;;;;;19.32;62.41;100279.88;4307355;33;34682;-78
2022/09/06 05:58:02;;;;;;;6.20;3.37;;;;;;;19.15;63.05;100275.41;4309271;33;34624;-79
2022/09/06 06:00:48;;;;;;;5.90;3.22;;;;;;;19.12;62.80;100269.75;4303832;33;34126;-80
2022/09/06 06:03:35;;;;;;;7.32;3.22;;;;;;;19.28;61.44;100285.31;4296351;33;34826;-80
2022/09/06 06:06:22;;;;;;;6.78;3.00;;;;;;;19.44;60.32;100287.31;4301433;33;35186;-80
2022/09/06 06:09:08;;;;;;;6.40;3.25;;;;;;;19.55;62.52;100274.53;4299264;33;35119;-80
2022/09/06 06:11:55;;;;;;;7.20;4.00;;;;;;;19.79;58.74;100275.59;4307622;33;35053;-79
2022/09/06 06:14:41;;;;;;;4.47;2.80;;;;;;;19.51;58.55;100273.63;4308977;33;35294;-72
2022/09/06 06:17:27;;;;;;;5.75;2.85;;;;;;;20.02;56.32;100265.47;4310872;33;35917;-72
2022/09/06 06:20:14;;;;;;;6.03;2.97;;;;;;;19.59;57.88;100267.13;4302130;33;34715;-72
2022/09/06 06:23:00;;;;;;;5.32;3.10;;;;;;;19.75;56.22;100269.91;4294185;33;36413;-73
2022/09/06 06:25:46;;;;;;;5.97;3.33;;;;;;;19.61;56.75;100272.28;4297271;33;34687;-73
2022/09/06 06:28:34;;;;;;;5.20;3.00;;;;;;;19.60;55.95;100279.84;4304792;33;35074;-73
2022/09/06 06:31:21;;;;;;;7.22;3.30;;;;;;;19.80;55.00;100275.22;4301117;33;34703;-73
2022/09/06 06:34:07;;;;;;;5.43;2.80;;;;;;;19.43;55.35;100285.72;4286657;33;34549;-73
2022/09/06 06:36:54;;;;;;;5.00;3.08;;;;;;;20.10;55.99;100281.16;4307505;33;35561;-73
2022/09/06 06:39:40;;;;;;;7.68;3.30;;;;;;;20.08;56.23;100277.13;4302604;33;36033;-74
2022/09/06 06:42:27;;;;;;;11.23;3.37;;;;;;;20.00;54.77;100276.12;4292101;33;35386;-74
2022/09/06 06:45:15;;;;;;;5.97;3.75;;;;;;;20.20;53.52;100283.38;4302848;33;34357;-73
2022/09/06 06:48:02;;;;;;;6.57;3.40;;;;;;;19.85;55.55;100282.50;4294010;33;34662;-72
2022/09/06 06:50:48;;;;;;;9.45;3.42;;;;;;;20.13;54.29;100280.44;4274854;33;35039;-74
2022/09/06 06:53:34;;;;;;;7.90;3.22;;;;;;;20.62;53.19;100284.78;4306078;33;34604;-73
2022/09/06 06:56:25;;;;;;;6.90;3.10;;;;;;;20.53;52.80;100285.00;4287260;33;34173;-73
2022/09/06 06:59:12;;;;;;;;;;;;;;;20.52;52.53;100297.28;4303023;33;34249;-73
2022/09/06 07:01:58;;;;;;;6.72;3.15;;;;;;;20.61;50.26;100297.91;4296272;33;35218;-72
2022/09/06 07:04:45;;;;;;;6.43;3.65;;;;;;;20.99;49.36;100293.56;4305848;33;35579;-73
2022/09/06 07:07:31;;;;;;;9.80;3.83;;;;;;;21.28;47.83;100296.94;4306125;33;34129;-73
2022/09/06 07:10:21;;;;;;;6.95;3.40;;;;;;;21.23;49.10;100291.66;4310020;33;34678;-72
2022/09/06 07:13:22;;;;;;;9.88;3.00;;;;;;;20.63;49.66;100297.53;4300107;33;34824;-72
2022/09/06 07:16:19;;;;;;;7.07;3.60;;;;;;;21.40;50.25;100296.81;4296335;33;35325;-72
2022/09/06 07:19:05;;;;;;;8.68;4.07;;;;;;;21.74;48.07;100303.44;4298126;33;34976;-73
2022/09/06 07:21:52;;;;;;;8.85;3.33;;;;;;;21.49;48.86;100305.75;4295911;33;34767;-73
2022/09/06 07:24:38;;;;;;;8.43;3.50;;;;;;;21.59;49.35;100301.56;4306649;33;35956;-73
2022/09/06 07:27:25;;;;;;;7.40;3.92;;;;;;;21.69;48.54;100308.53;4305436;33;34672;-72
2022/09/06 07:30:31;;;;;;;6.53;3.80;;;;;;;21.53;48.05;100306.62;4292946;33;34173;-73
2022/09/06 07:33:17;;;;;;;8.10;3.40;;;;;;;22.01;49.02;100303.50;4285167;33;34549;-73
2022/09/06 07:36:06;;;;;;;9.02;3.53;;;;;;;22.25;47.91;100307.91;4307309;33;35120;-72
2022/09/06 07:38:53;;;;;;;6.30;3.50;;;;;;;22.46;47.01;100299.09;4309536;33;34405;-73
2022/09/06 07:41:39;;;;;;;9.02;3.30;;;;;;;22.54;47.64;100309.19;4306798;33;35185;-73
2022/09/06 07:44:27;;;;;;;9.93;3.60;;;;;;;22.66;46.87;100299.78;4305360;33;35656;-73
2022/09/06 07:47:16;;;;;;;9.88;3.80;;;;;;;22.58;48.49;100300.88;4295945;33;35985;-72
2022/09/06 07:50:22;;;;;;;10.35;4.05;;;;;;;22.85;46.67;100301.63;4306114;33;34474;-73
2022/09/06 07:53:28;;;;;;;9.70;3.70;;;;;;;22.28;47.27;100309.97;4309252;33;35224;-72
2022/09/06 07:56:18;;;;;;;6.68;3.53;;;;;;;23.08;45.13;100310.78;4303357;33;34576;-73
2022/09/06 07:59:04;;;;;;;6.25;3.47;;;;;;;22.86;44.45;100300.47;4297441;33;34893;-73
2022/09/06 08:01:51;;;;;;;8.55;3.35;;;;;;;23.01;45.51;100307.06;4306041;33;34605;-73
2022/09/06 08:04:40;;;;;;;7.80;3.55;;;;;;;22.35;48.50;100301.72;4311617;33;35047;-73
2022/09/06 08:07:27;;;;;;;8.07;3.60;;;;;;;22.76;45.99;100304.72;4296602;33;34301;-73
2022/09/06 08:10:28;;;;;;;;;;;;;;;23.28;44.72;100303.03;4297198;33;34962;-73
2022/09/06 08:13:14;;;;;;;5.40;3.55;;;;;;;22.89;46.32;100306.09;4288078;33;34567;-73
2022/09/06 08:16:07;;;;;;;8.68;3.87;;;;;;;23.41;45.56;100306.38;4293548;33;34211;-73
2022/09/06 08:18:58;;;;;;;7.20;4.22;;;;;;;23.69;45.18;100299.50;4297229;33;34703;-73
2022/09/06 08:21:45;;;;;;;12.27;4.03;;;;;;;24.27;43.75;100295.22;4295623;33;35938;-73
2022/09/06 08:24:34;;;;;;;9.50;3.78;;;;;;;23.26;44.81;100291.44;4303299;33;34742;-72
2022/09/06 08:27:20;;;;;;;9.65;4.12;;;;;;;23.98;45.42;100295.00;4287546;33;34193;-73
2022/09/06 08:30:08;;;;;;;6.07;3.80;;;;;;;23.65;44.82;100301.44;4308119;33;34444;-72
2022/09/06 08:32:55;;;;;;;8.35;4.00;;;;;;;24.22;42.83;100294.41;4308686;33;34570;-73
2022/09/06 08:35:41;;;;;;;8.32;3.65;;;;;;;23.85;43.98;100293.66;4298356;33;35181;-73
2022/09/06 08:38:28;;;;;;;8.65;4.05;;;;;;;24.09;42.44;100295.91;4308300;33;34490;-73
2022/09/06 08:41:28;;;;;;;7.55;3.90;;;;;;;23.71;45.44;100292.34;4295136;33;98806;-73
2022/09/06 08:44:36;;;;;;;16.08;4.55;;;;;;;24.13;44.65;100288.31;4289643;33;34939;-73
2022/09/06 08:47:42;;;;;;;7.03;3.87;;;;;;;24.67;43.26;100291.53;4306957;33;34197;-73
2022/09/06 08:50:28;;;;;;;7.03;4.05;;;;;;;24.87;41.58;100290.06;4303472;33;33888;-73
2022/09/06 08:53:16;;;;;;;11.18;4.32;;;;;;;24.82;42.76;100286.84;4290424;33;34747;-73
2022/09/06 08:56:12;;;;;;;8.18;4.25;;;;;;;24.91;42.09;100278.88;4297836;33;33899;-73
2022/09/06 08:59:06;;;;;;;6.25;3.47;;;;;;;25.23;41.05;100273.41;4296278;33;34657;-73
2022/09/06 09:02:11;;;;;;;7.10;4.35;;;;;;;25.13;41.47;100272.16;4291936;33;34146;-73
2022/09/06 09:04:59;;;;;;;9.95;4.57;;;;;;;25.43;40.85;100271.06;4293797;33;34256;-73
2022/09/06 09:07:51;;;;;;;7.57;4.25;;;;;;;25.74;41.07;100274.34;4297109;33;35741;-73
2022/09/06 09:10:41;;;;;;;7.60;4.43;;;;;;;25.77;40.24;100268.72;4302572;33;35454;-73
2022/09/06 09:13:46;;;;;;;7.82;4.20;;;;;;;24.73;41.28;100269.56;4298139;33;34166;-73
2022/09/06 09:16:32;;;;;;;7.75;4.10;;;;;;;25.70;41.05;100267.91;4300976;33;34240;-73
2022/09/06 09:19:19;;;;;;;8.50;4.28;;;;;;;25.83;39.80;100260.75;4309083;33;34977;-73
2022/09/06 09:22:05;;;;;;;11.30;4.32;;;;;;;25.91;40.90;100255.94;4296175;33;35244;-73
2022/09/06 09:24:53;;;;;;;7.05;4.28;;;;;;;26.44;38.39;100249.47;4294095;33;34708;-73
2022/09/06 09:27:40;;;;;;;6.93;4.03;;;;;;;26.41;40.93;100242.69;4308699;33;34739;-73
2022/09/06 09:30:44;;;;;;;7.22;4.30;;;;;;;25.99;39.46;100240.72;4306825;33;34673;-73
2022/09/06 09:33:38;;;;;;;10.57;4.57;;;;;;;26.58;40.17;100232.63;4293110;33;34779;-73
2022/09/06 09:36:24;;;;;;;7.25;3.95;;;;;;;26.81;39.11;100234.13;4301223;33;35185;-73
2022/09/06 09:39:11;;;;;;;10.13;4.65;;;;;;;27.24;38.80;100226.34;4281191;33;35640;-73
2022/09/06 09:41:57;;;;;;;8.88;4.50;;;;;;;27.04;37.59;100225.22;4292449;33;35983;-73
2022/09/06 09:44:44;;;;;;;7.30;4.25;;;;;;;27.01;37.41;100229.66;4299891;33;35591;-73
2022/09/06 09:47:32;;;;;;;8.45;4.47;;;;;;;26.89;38.32;100222.44;4308979;33;34224;-73
2022/09/06 09:50:28;;;;;;;11.85;4.62;;;;;;;27.72;37.23;100230.44;4295195;33;34827;-73
2022/09/06 09:53:17;;;;;;;6.37;4.60;;;;;;;27.61;36.76;100213.66;4313934;33;36085;-73
2022/09/06 09:56:04;;;;;;;7.65;4.45;;;;;;;27.94;37.14;100209.38;4295253;33;34880;-73
2022/09/06 09:58:52;;;;;;;10.18;4.97;;;;;;;28.02;37.30;100208.09;4300583;33;35065;-74
2022/09/06 10:01:38;;;;;;;7.68;4.50;;;;;;;28.34;36.39;100214.63;4288501;33;34593;-73
2022/09/06 10:04:37;;;;;;;10.15;4.65;;;;;;;27.07;38.41;100193.47;4290793;33;34957;-73
2022/09/06 10:07:26;;;;;;;9.18;4.95;;;;;;;28.09;36.81;100204.44;4313307;33;33411;-73
2022/09/06 10:10:28;;;;;;;7.37;4.70;;;;;;;27.82;37.45;100200.66;4298917;33;34158;-73
2022/09/06 10:13:30;;;;;;;8.30;4.50;;;;;;;28.83;35.10;100190.75;4313224;33;34675;-72
2022/09/06 10:16:43;;;;;;;7.97;4.40;;;;;;;28.42;36.73;100193.66;4288640;33;35038;-73
2022/09/06 10:19:41;;;;;;;6.68;4.57;;;;;;;29.21;35.59;100181.41;4288295;33;34650;-73
2022/09/06 10:22:34;;;;;;;7.62;4.68;;;;;;;29.92;33.92;100185.91;4288395;33;33901;-74
2022/09/06 10:25:57;;;;;;;6.12;4.28;;;;;;;29.20;33.85;100176.97;4288178;33;34717;-74
2022/09/06 10:28:44;;;;;;;7.87;5.00;;;;;;;30.20;32.88;100178.16;4244064;33;34899;-73
2022/09/06 10:31:50;;;;;;;7.70;4.57;;;;;;;29.24;34.17;100174.91;4288079;33;36084;-73
2022/09/06 10:34:49;;;;;;;7.45;4.53;;;;;;;28.01;36.48;100171.91;4288258;33;34595;-73
2022/09/06 10:37:44;;;;;;;6.80;4.10;;;;;;;29.23;35.08;100162.00;4301934;33;34750;-73
2022/09/06 10:41:09;;;;;;;6.12;4.45;;;;;;;30.17;34.75;100156.41;4304224;33;35015;-74
2022/09/06 10:44:00;;;;;;;9.23;4.37;;;;;;;28.52;35.48;100161.72;4279508;33;35546;-73
2022/09/06 10:46:49;;;;;;;6.68;4.43;;;;;;;30.16;33.87;100149.16;4302069;33;33876;-73
2022/09/06 10:49:37;;;;;;;5.95;3.72;;;;;;;29.73;34.69;100147.12;4288801;33;35619;-73
2022/09/06 10:52:27;;;;;;;5.35;3.65;;;;;;;30.17;34.88;100148.75;4298409;33;34952;-73
2022/09/06 10:55:16;;;;;;;5.93;3.62;;;;;;;30.96;33.92;100147.16;4310639;33;35529;-74
2022/09/06 10:58:05;;;;;;;6.80;3.65;;;;;;;31.57;32.62;100154.25;4306428;33;34693;-74
2022/09/06 11:01:10;;;;;;;4.53;3.30;;;;;;;31.36;32.79;100159.19;4291884;33;34367;-74
2022/09/06 11:03:58;;;;;;;5.10;3.45;;;;;;;32.26;31.92;100159.75;4291910;33;34934;-74
2022/09/06 11:06:58;;;;;;;5.00;3.50;;;;;;;32.73;29.50;100161.25;4304631;33;34664;-74
2022/09/06 11:09:45;;;;;;;;;;;;;;;29.32;33.92;100159.47;4298629;33;35100;-74
2022/09/06 11:12:56;;;;;;;4.60;3.37;;;;;;;31.51;31.74;100156.81;4289799;33;34932;-73
2022/09/06 11:16:01;;;;;;;4.37;3.45;;;;;;;31.86;31.85;100150.69;4289710;33;34865;-73
2022/09/06 11:18:58;;;;;;;7.45;3.95;;;;;;;32.38;31.58;100147.62;4309094;33;34696;-73
2022/09/06 11:22:02;;;;;;;6.35;3.50;;;;;;;32.59;30.43;100143.44;4306919;33;34297;-74
2022/09/06 11:25:15;;;;;;;5.82;3.58;;;;;;;31.65;31.56;100133.00;4303023;33;35540;-74
2022/09/06 11:28:04;;;;;;;4.47;3.10;;;;;;;31.11;32.47;100130.66;4312219;33;35071;-74
2022/09/06 11:30:55;;;;;;;4.93;3.20;;;;;;;31.85;32.03;100134.91;4292797;33;33959;-73
2022/09/06 11:33:42;;;;;;;3.72;3.05;;;;;;;32.58;31.25;100124.81;4292053;33;34422;-74
2022/09/06 11:36:35;;;;;;;3.80;3.37;;;;;;;32.96;29.52;100132.59;4302049;33;35539;-74
2022/09/06 11:39:25;;;;;;;5.57;3.20;;;;;;;32.51;31.07;100118.56;4286919;33;34887;-73
2022/09/06 11:42:43;;;;;;;4.90;3.45;;;;;;;31.23;32.14;100118.63;4299898;33;34595;-73
2022/09/06 11:45:42;;;;;;;7.62;3.50;;;;;;;31.90;30.91;100115.31;4314994;33;35173;-73
2022/09/06 11:48:33;;;;;;;8.32;3.50;;;;;;;31.80;31.30;100120.03;4311836;33;33606;-73
2022/09/06 11:51:33;;;;;;;10.15;3.78;;;;;;;30.98;32.39;100113.56;4290079;33;34983;-74
2022/09/06 11:54:22;;;;;;;7.17;3.57;;;;;;;31.35;32.54;100109.47;4303660;33;35622;-74
2022/09/06 11:57:20;;;;;;;5.40;3.10;;;;;;;31.62;32.66;100105.56;4314336;33;35055;-75
2022/09/06 12:00:18;;;;;;;5.93;3.08;;;;;;;32.51;30.88;100096.66;4290987;33;34678;-73
2022/09/06 12:03:08;;;;;;;6.60;3.30;;;;;;;32.77;31.32;100100.34;4296793;33;36050;-73
2022/09/06 12:06:22;;;;;;;6.28;3.50;;;;;;;32.69;29.55;100096.12;4291297;33;34196;-73
2022/09/06 12:09:28;;;;;;;5.28;3.10;;;;;;;33.11;29.18;100088.34;4289400;33;34160;-73
2022/09/06 12:12:38;;;;;;;6.40;3.20;;;;;;;32.99;29.66;100086.31;4304450;33;34610;-74
2022/09/06 12:15:44;;;;;;;5.10;3.30;;;;;;;33.51;28.46;100093.50;4313261;33;34987;-73
2022/09/06 12:18:52;;;;;;;4.90;3.12;;;;;;;33.83;28.31;100076.59;4288969;33;34623;-74
2022/09/06 12:21:41;;;;;;;6.68;3.72;;;;;;;33.63;27.65;100080.53;4292162;33;34123;-74
2022/09/06 12:24:33;;;;;;;7.12;3.37;;;;;;;30.84;30.96;100080.72;4299674;33;35071;-74
2022/09/06 12:27:21;;;;;;;12.88;3.72;;;;;;;30.08;34.44;100071.41;4288324;33;35985;-74
2022/09/06 12:30:12;;;;;;;4.70;2.97;;;;;;;31.52;30.39;100055.66;4300767;33;34335;-73
2022/09/06 12:32:59;;;;;;;4.18;3.10;;;;;;;31.02;30.97;100056.88;4293434;33;34371;-73
2022/09/06 12:35:45;;;;;;;5.90;3.00;;;;;;;30.82;31.50;100042.81;4292088;33;35557;-73
2022/09/06 12:39:00;;;;;;;6.22;3.65;;;;;;;32.06;31.35;100043.69;4314646;33;35270;-74
2022/09/06 12:42:00;;;;;;;7.62;3.50;;;;;;;31.72;29.48;100042.16;4296233;33;34645;-74
2022/09/06 12:44:48;;;;;;;5.90;3.10;;;;;;;31.98;29.98;100036.63;4290532;33;34091;-74
2022/09/06 12:47:36;;;;;;;11.02;3.28;;;;;;;31.08;31.45;100038.13;4301370;33;34711;-74
2022/09/06 12:50:24;;;;;;;5.30;3.10;;;;;;;31.38;32.57;100039.84;4288545;33;35475;-74
2022/09/06 12:53:23;;;;;;;4.93;3.28;;;;;;;32.29;29.80;100027.63;4289275;33;34638;-73
2022/09/06 12:56:11;;;;;;;4.25;3.22;;;;;;;32.29;28.75;100034.09;4298922;33;35164;-74
2022/09/06 12:59:22;;;;;;;5.30;3.30;;;;;;;31.18;31.64;100030.63;4289229;33;34215;-75
2022/09/06 13:02:10;;;;;;;;;;;;;;;31.87;30.28;100019.87;4307853;33;35973;-73
2022/09/06 13:05:04;;;;;;;4.18;2.95;;;;;;;33.42;28.54;100007.41;4310142;33;35702;-74
2022/09/06 13:07:58;;;;;;;4.93;3.12;;;;;;;33.49;28.28;100013.63;4289079;33;33735;-74
2022/09/06 13:10:45;;;;;;;4.28;3.05;;;;;;;32.92;28.38;100004.97;4292582;33;34721;-74
2022/09/06 13:13:32;;;;;;;4.82;2.83;;;;;;;32.17;30.00;100004.47;4295833;33;36003;-74
2022/09/06 13:16:19;;;;;;;4.43;3.35;;;;;;;31.89;30.94;100000.41;4303715;33;34663;-74
2022/09/06 13:19:33;;;;;;;6.03;3.50;;;;;;;31.89;30.25;99999.63;4289507;33;34153;-74